createdAt,value
2023-01-27T00:09:42.019Z,9.06
2023-01-27T00:24:43.689Z,8.96
2023-01-27T00:39:45.255Z,9.01
2023-01-27T00:54:46.817Z,9.05
2023-01-27T01:09:48.320Z,9.02
2023-01-27T01:24:49.912Z,9.03
2023-01-27T01:39:51.454Z,9.01
2023-01-27T01:54:55.527Z,9.03
2023-01-27T02:09:58.606Z,9.03
2023-01-27T02:25:05.755Z,9.04
2023-01-27T02:40:08.794Z,9.03
2023-01-27T02:55:10.863Z,9.01
2023-01-27T03:10:12.642Z,9.01
2023-01-27T03:25:14.509Z,9.02
2023-01-27T03:40:35.282Z,9.00
2023-01-27T03:55:37.671Z,8.98
2023-01-27T04:10:39.126Z,8.95
2023-01-27T04:25:40.770Z,8.96
2023-01-27T04:40:42.765Z,8.90
2023-01-27T04:55:47.342Z,8.94
2023-01-27T05:10:49.023Z,8.89
2023-01-27T05:25:50.532Z,8.91
2023-01-27T05:40:55.104Z,8.94
2023-01-27T05:55:56.669Z,8.98
2023-01-27T06:10:58.508Z,8.90
2023-01-27T06:26:05.143Z,8.87
2023-01-27T06:41:06.999Z,8.88
2023-01-27T06:56:08.751Z,8.89
2023-01-27T07:11:10.328Z,8.90
2023-01-27T07:26:24.317Z,8.93
2023-01-27T07:41:26.679Z,8.90
2023-01-27T07:56:28.468Z,8.90
2023-01-27T08:11:29.995Z,8.91
2023-01-27T08:26:31.681Z,8.93
2023-01-27T08:41:33.232Z,8.91
2023-01-27T08:56:35.443Z,8.92
2023-01-27T09:11:38.094Z,8.93
2023-01-27T09:26:39.615Z,8.90
2023-01-27T09:41:52.974Z,8.92
2023-01-27T09:57:13.349Z,8.95
2023-01-27T10:12:24.192Z,8.83
2023-01-27T10:27:26.626Z,8.84
2023-01-27T10:42:36.226Z,8.86
2023-01-27T10:58:00.171Z,8.83
2023-01-27T11:13:03.516Z,8.82
2023-01-27T11:28:11.299Z,8.88
2023-01-27T11:43:16.244Z,8.88
2023-01-27T11:58:24.172Z,8.90
2023-01-27T12:13:26.120Z,8.90
2023-01-27T12:28:36.388Z,8.90
2023-01-27T12:43:51.493Z,8.98
2023-01-27T12:59:00.220Z,8.96
2023-01-27T13:14:01.994Z,9.02
2023-01-27T13:29:06.565Z,8.95
2023-01-27T13:44:25.909Z,8.91
2023-01-27T13:59:42.638Z,8.92
2023-01-27T14:31:09.559Z,8.86
2023-01-27T14:46:20.434Z,8.85
2023-01-27T15:01:40.482Z,8.83
2023-01-27T15:32:48.958Z,10.66
2023-01-27T15:47:57.951Z,8.76
2023-01-27T16:03:04.713Z,10.65
2023-01-27T16:18:09.368Z,10.71
2023-01-27T16:33:22.801Z,10.76
2023-01-27T16:48:39.170Z,10.71
2023-01-27T17:03:40.944Z,10.74
2023-01-27T17:18:52.313Z,10.87
2023-01-27T17:33:58.734Z,8.74
2023-01-27T17:49:05.355Z,8.70
2023-01-27T18:04:09.984Z,8.75
2023-01-27T18:19:20.796Z,8.71
2023-01-27T18:49:45.271Z,10.37
2023-01-27T19:04:46.814Z,10.36
2023-01-27T19:19:48.724Z,10.48
2023-01-27T19:34:50.314Z,10.36
2023-01-27T19:49:51.954Z,10.26
2023-01-27T20:04:53.432Z,10.37
2023-01-27T20:19:54.981Z,10.58
2023-01-27T20:34:59.332Z,10.40
2023-01-27T20:50:01.052Z,10.64
2023-01-27T21:05:02.589Z,8.65
2023-01-27T21:20:04.494Z,8.67
2023-01-27T21:35:06.325Z,8.54
2023-01-27T21:50:11.004Z,8.52
2023-01-27T22:05:13.365Z,8.48
2023-01-27T22:20:15.661Z,8.49
2023-01-27T22:35:18.397Z,10.46
2023-01-27T22:50:20.279Z,8.51
2023-01-27T23:05:22.101Z,8.51
2023-01-27T23:20:23.721Z,8.50
2023-01-27T23:35:25.421Z,8.53
2023-01-27T23:50:26.941Z,8.66
